Time;durP1;ratioP1;P1;durP2;ratioP2;P2;SDS_P1;SDS_P2;PMS_P1;PMS_P2;Temp;Humidity;BMP_temperature;BMP_pressure;BME280_temperature;BME280_humidity;BME280_pressure;Samples;Min_cycle;Max_cycle;Signal;HPM_P1;HPM_P2
2022/05/26 00:02:03;;;;;;;3.72;2.40;;;14.30;64.50;;;;;;4995353;28;20026;-75
2022/05/26 00:04:29;;;;;;;2.22;1.60;;;14.20;65.20;;;;;;5013279;28;20037;-75
2022/05/26 00:06:55;;;;;;;3.35;2.30;;;14.20;65.00;;;;;;5013309;28;20048;-75
2022/05/26 00:09:22;;;;;;;3.47;1.98;;;14.30;65.40;;;;;;5012605;28;20052;-75
2022/05/26 00:11:47;;;;;;;3.00;1.85;;;14.30;64.60;;;;;;5012438;28;20108;-72
2022/05/26 00:14:13;;;;;;;2.08;1.60;;;14.30;64.50;;;;;;5012427;28;20101;-74
2022/05/26 00:16:44;;;;;;;4.30;1.67;;;14.40;63.70;;;;;;5012067;28;20053;-74
2022/05/26 00:19:12;;;;;;;3.97;1.73;;;14.50;63.50;;;;;;5012600;28;20419;-74
2022/05/26 00:21:37;;;;;;;2.67;1.77;;;14.70;62.30;;;;;;5012677;28;20061;-74
2022/05/26 00:24:03;;;;;;;2.72;1.70;;;14.70;62.10;;;;;;4994855;28;20057;-75
2022/05/26 00:26:29;;;;;;;2.22;1.40;;;14.80;61.80;;;;;;4994833;28;20034;-74
2022/05/26 00:28:55;;;;;;;3.05;2.17;;;14.90;60.80;;;;;;4994181;28;20022;-75
2022/05/26 00:31:20;;;;;;;2.33;1.50;;;14.90;61.40;;;;;;5012234;28;20542;-74
2022/05/26 00:33:46;;;;;;;3.33;2.00;;;14.90;60.20;;;;;;5012415;28;20030;-74
2022/05/26 00:36:14;;;;;;;2.20;2.00;;;14.80;59.70;;;;;;5012505;28;20026;-74
2022/05/26 00:38:40;;;;;;;2.40;1.63;;;14.80;59.70;;;;;;4994414;28;20026;-75
2022/05/26 00:41:11;;;;;;;4.43;2.13;;;14.90;59.80;;;;;;5012226;28;20041;-75
2022/05/26 00:43:44;;;;;;;3.15;1.98;;;14.80;59.70;;;;;;5012128;28;20022;-75
2022/05/26 00:46:23;;;;;;;6.13;2.38;;;14.90;59.50;;;;;;5012203;28;20030;-75
2022/05/26 00:48:56;;;;;;;3.83;1.55;;;14.80;59.30;;;;;;5011775;28;20034;-76
2022/05/26 00:51:26;;;;;;;2.20;1.77;;;14.70;58.80;;;;;;5011985;28;20045;-77
2022/05/26 00:53:56;;;;;;;2.08;1.48;;;14.70;58.00;;;;;;5012448;28;20084;-76
2022/05/26 00:56:28;;;;;;;4.72;1.88;;;14.60;58.40;;;;;;5012087;28;20021;-75
2022/05/26 00:58:59;;;;;;;72.63;44.00;;;14.50;58.70;;;;;;5011776;28;20025;-75
2022/05/26 01:01:25;;;;;;;3.25;2.08;;;14.50;58.60;;;;;;5011986;28;20391;-74
2022/05/26 01:03:57;;;;;;;210.18;118.20;;;14.50;58.30;;;;;;5011880;28;20040;-73
2022/05/26 01:06:38;;;;;;;13.57;7.13;;;14.50;58.90;;;;;;5011716;28;20156;-73
2022/05/26 01:09:04;;;;;;;;;;;14.50;59.30;;;;;;5011905;28;20065;-76
2022/05/26 01:11:38;;;;;;;9.98;5.65;;;14.40;58.60;;;;;;5011788;28;19940;-75
2022/05/26 01:14:12;;;;;;;6.72;3.17;;;14.50;58.00;;;;;;5011750;28;20401;-74
2022/05/26 01:16:49;;;;;;;17.70;8.13;;;14.60;58.00;;;;;;5011713;28;20026;-74
2022/05/26 01:19:52;;;;;;;27.88;10.98;;;14.60;58.00;;;;;;4994039;28;20026;-75
2022/05/26 01:22:23;;;;;;;8.75;3.65;;;14.60;58.80;;;;;;5011917;28;20109;-75
2022/05/26 01:25:18;;;;;;;11.00;4.38;;;14.60;58.50;;;;;;5011850;28;20068;-75
2022/05/26 01:27:45;;;;;;;7.57;3.25;;;14.70;57.40;;;;;;5011709;28;20021;-75
2022/05/26 01:30:46;;;;;;;4.07;1.48;;;14.70;57.60;;;;;;4994769;28;20058;-75
2022/05/26 01:33:11;;;;;;;3.30;1.73;;;14.70;56.90;;;;;;4992123;28;20038;-75
2022/05/26 01:35:41;;;;;;;4.10;1.98;;;14.70;57.50;;;;;;4995884;28;20022;-75
2022/05/26 01:38:37;;;;;;;5.50;1.48;;;14.70;57.40;;;;;;4995633;28;20424;-75
2022/05/26 01:41:20;;;;;;;8.00;1.70;;;14.70;57.40;;;;;;4995716;28;20491;-75
2022/05/26 01:43:56;;;;;;;7.32;1.90;;;14.70;57.80;;;;;;4995703;28;20027;-75
2022/05/26 01:46:39;;;;;;;4.43;1.30;;;14.80;57.40;;;;;;5001207;28;20026;-75
2022/05/26 01:49:17;;;;;;;2.50;0.93;;;14.80;57.40;;;;;;4994040;28;20515;-74
2022/05/26 01:51:52;;;;;;;3.95;1.30;;;14.80;57.00;;;;;;4995620;28;20027;-76
2022/05/26 01:54:29;;;;;;;2.03;1.23;;;14.90;56.40;;;;;;4990649;28;20399;-75
2022/05/26 01:57:02;;;;;;;1.75;0.95;;;14.90;56.80;;;;;;5015288;28;20117;-74
2022/05/26 01:59:52;;;;;;;1.80;0.90;;;15.00;56.30;;;;;;4997548;28;20116;-75
2022/05/26 02:02:25;;;;;;;1.20;1.00;;;15.00;56.20;;;;;;4997497;28;20080;-75
2022/05/26 02:04:57;;;;;;;4.78;1.30;;;15.00;56.80;;;;;;4997465;28;20058;-75
2022/05/26 02:07:51;;;;;;;2.00;0.95;;;15.10;55.00;;;;;;4997344;28;20061;-75
2022/05/26 02:10:28;;;;;;;3.60;1.17;;;15.20;55.60;;;;;;5014933;28;20026;-76
2022/05/26 02:13:11;;;;;;;2.35;1.08;;;15.30;54.50;;;;;;5039319;22;20504;-72
2022/05/26 02:15:50;;;;;;;2.88;1.17;;;15.30;55.00;;;;;;4997679;28;20034;-73
2022/05/26 02:18:21;;;;;;;2.53;0.93;;;15.40;54.10;;;;;;5015331;28;20051;-72
2022/05/26 02:20:58;;;;;;;3.35;1.27;;;15.50;54.00;;;;;;5015435;28;20050;-73
2022/05/26 02:23:44;;;;;;;3.47;1.20;;;15.50;54.00;;;;;;4995121;28;20500;-73
2022/05/26 02:26:10;;;;;;;2.50;1.00;;;15.60;54.20;;;;;;4995343;28;20085;-72
2022/05/26 02:31:24;;;;;;;3.03;0.95;;;15.70;53.50;;;;;;4995627;28;20025;-73
2022/05/26 02:33:57;;;;;;;1.75;0.98;;;15.70;53.40;;;;;;4977750;28;20019;-73
2022/05/26 02:36:26;;;;;;;1.20;0.77;;;15.70;53.60;;;;;;4995094;28;20559;-72
2022/05/26 02:38:52;;;;;;;1.80;1.05;;;15.70;53.60;;;;;;4994782;28;20034;-72
2022/05/26 02:41:18;;;;;;;1.42;0.85;;;15.60;54.60;;;;;;4994676;28;20024;-73
2022/05/26 02:43:43;;;;;;;1.88;0.90;;;15.60;54.70;;;;;;4995059;28;20031;-73
2022/05/26 02:46:32;;;;;;;1.77;1.10;;;15.60;54.20;;;;;;4994803;28;20038;-71
2022/05/26 02:49:07;;;;;;;3.28;1.10;;;15.50;54.00;;;;;;4994374;28;20033;-72
2022/05/26 02:51:44;;;;;;;2.92;0.90;;;15.50;54.70;;;;;;4994541;28;20026;-72
2022/05/26 02:54:39;;;;;;;3.15;1.42;;;15.50;53.50;;;;;;4994548;28;20022;-72
2022/05/26 02:57:19;;;;;;;3.30;0.90;;;15.40;54.00;;;;;;4976974;28;20114;-72
2022/05/26 03:00:06;;;;;;;4.35;1.10;;;15.40;55.70;;;;;;4994956;28;20029;-72
2022/05/26 03:02:54;;;;;;;2.03;1.15;;;15.40;54.80;;;;;;4994531;28;20494;-71
2022/05/26 03:05:22;;;;;;;3.88;1.00;;;15.40;54.40;;;;;;4994364;28;20031;-71
2022/05/26 03:07:53;;;;;;;1.50;1.00;;;15.50;55.20;;;;;;4994147;28;20511;-72
2022/05/26 03:10:25;;;;;;;1.52;0.90;;;15.40;53.80;;;;;;4994628;28;20030;-72
2022/05/26 03:12:54;;;;;;;3.03;1.33;;;15.40;55.10;;;;;;4994129;28;20042;-72
2022/05/26 03:15:20;;;;;;;2.13;0.80;;;15.40;54.80;;;;;;4994394;28;20041;-72
2022/05/26 03:17:45;;;;;;;3.50;0.90;;;15.30;55.20;;;;;;4993902;28;20469;-71
2022/05/26 03:20:11;;;;;;;1.33;0.80;;;15.30;55.70;;;;;;4994323;28;20065;-74
2022/05/26 03:22:38;;;;;;;2.42;0.93;;;15.20;56.00;;;;;;4994116;28;20030;-73
2022/05/26 03:25:04;;;;;;;3.17;1.00;;;15.10;55.60;;;;;;4993992;28;20527;-73
2022/05/26 03:27:29;;;;;;;4.45;1.00;;;15.10;56.20;;;;;;4993948;28;20034;-73
2022/05/26 03:29:55;;;;;;;3.08;0.80;;;15.10;55.60;;;;;;4993865;28;20026;-73
2022/05/26 03:32:21;;;;;;;1.15;0.93;;;15.10;56.00;;;;;;4976438;28;20073;-71
2022/05/26 03:42:59;;;;;;;1.30;0.65;;;15.60;54.20;;;;;;4994341;28;20104;-72
2022/05/26 03:45:24;;;;;;;4.80;0.80;;;16.00;53.30;;;;;;4994110;28;20030;-72
2022/05/26 03:47:50;;;;;;;2.60;1.27;;;16.10;52.70;;;;;;4993509;28;20484;-74
2022/05/26 03:50:17;;;;;;;1.30;0.95;;;16.20;53.10;;;;;;4993510;28;20495;-74
2022/05/26 03:52:43;;;;;;;3.10;0.90;;;16.50;52.70;;;;;;4993053;28;20050;-73
2022/05/26 03:55:08;;;;;;;2.80;1.00;;;16.80;51.60;;;;;;4993683;28;20022;-73
2022/05/26 03:57:34;;;;;;;2.25;0.90;;;17.40;50.10;;;;;;4976031;28;20469;-73
2022/05/26 04:00:00;;;;;;;1.13;0.63;;;;;;;;;;4993829;28;20031;-72
2022/05/26 04:02:27;;;;;;;2.38;1.00;;;18.50;47.30;;;;;;4993671;28;20050;-70
2022/05/26 04:04:53;;;;;;;2.45;0.93;;;19.40;45.50;;;;;;4993609;28;20500;-71
2022/05/26 04:07:18;;;;;;;1.42;0.70;;;20.30;43.50;;;;;;4993341;28;20034;-72
2022/05/26 04:09:44;;;;;;;3.25;0.80;;;20.70;42.40;;;;;;4993532;28;20027;-72
2022/05/26 04:12:11;;;;;;;0.95;0.70;;;20.80;41.30;;;;;;4993672;28;20031;-72
2022/05/26 04:14:37;;;;;;;1.75;0.85;;;20.60;41.50;;;;;;4976096;28;20476;-72
2022/05/26 04:17:03;;;;;;;1.17;0.70;;;20.60;41.20;;;;;;4975602;28;20062;-72
2022/05/26 04:19:29;;;;;;;2.72;0.77;;;20.40;42.40;;;;;;4993042;28;20511;-72
2022/05/26 04:24:39;;;;;;;1.90;1.05;;;20.30;42.70;;;;;;4993376;28;20033;-72
2022/05/26 04:27:05;;;;;;;1.30;0.80;;;20.00;43.00;;;;;;4992712;28;20034;-72
2022/05/26 04:29:32;;;;;;;5.70;1.30;;;19.90;42.90;;;;;;4992798;28;20049;-72
2022/05/26 04:31:57;;;;;;;2.30;1.13;;;20.10;43.00;;;;;;4992786;28;20162;-72
2022/05/26 04:34:23;;;;;;;2.38;1.05;;;20.40;42.40;;;;;;4992592;28;20106;-71
2022/05/26 04:36:49;;;;;;;2.03;1.15;;;20.90;41.70;;;;;;4992553;28;20023;-70
2022/05/26 04:39:16;;;;;;;4.25;1.17;;;21.00;41.40;;;;;;4992761;28;20036;-70
2022/05/26 04:41:42;;;;;;;1.52;0.90;;;21.00;41.30;;;;;;4992885;28;20364;-70
2022/05/26 04:44:09;;;;;;;3.30;1.50;;;20.90;41.50;;;;;;4989916;28;20033;-70
2022/05/26 04:46:36;;;;;;;2.60;1.48;;;20.70;41.80;;;;;;4980240;28;20081;-73
2022/05/26 04:49:02;;;;;;;2.92;1.90;;;20.70;42.10;;;;;;4992204;28;20421;-71
2022/05/26 04:51:28;;;;;;;3.17;1.55;;;20.50;42.40;;;;;;4992314;28;20113;-71
2022/05/26 04:53:54;;;;;;;5.43;1.80;;;20.30;43.00;;;;;;4991923;28;20082;-71
2022/05/26 04:56:20;;;;;;;3.67;1.70;;;20.30;43.80;;;;;;4992623;28;20022;-71
2022/05/26 04:58:47;;;;;;;2.88;1.30;;;20.10;43.90;;;;;;4992153;28;20049;-72
2022/05/26 05:01:17;;;;;;;3.20;1.20;;;20.30;43.40;;;;;;4992377;28;20081;-71
2022/05/26 05:03:44;;;;;;;3.13;1.30;;;20.30;43.60;;;;;;4992439;28;20392;-72
2022/05/26 05:06:09;;;;;;;1.75;1.05;;;20.20;44.20;;;;;;4992238;28;20536;-72
2022/05/26 05:08:35;;;;;;;2.58;1.70;;;20.00;44.40;;;;;;4992137;28;20113;-72
2022/05/26 05:11:01;;;;;;;2.15;1.15;;;20.20;44.60;;;;;;4992109;28;20034;-71
2022/05/26 05:13:27;;;;;;;3.35;1.30;;;19.90;45.00;;;;;;4992551;28;20395;-70
2022/05/26 05:16:42;;;;;;;2.58;1.40;;;19.90;44.10;;;;;;4992370;28;20551;-69
2022/05/26 05:19:12;;;;;;;2.85;1.27;;;19.50;45.30;;;;;;4911843;29;20044;-71
2022/05/26 05:21:58;;;;;;;2.65;0.88;;;19.50;45.60;;;;;;4911698;29;20036;-72
2022/05/26 05:24:49;;;;;;;5.57;1.00;;;19.40;46.00;;;;;;4961726;28;20137;-71
2022/05/26 05:27:17;;;;;;;1.98;0.70;;;19.30;46.00;;;;;;4981368;28;20031;-72
2022/05/26 05:29:44;;;;;;;1.65;0.60;;;19.20;46.40;;;;;;4975024;28;20027;-71
2022/05/26 05:32:35;;;;;;;6.53;0.82;;;19.20;46.50;;;;;;4971768;28;20023;-76
2022/05/26 05:35:11;;;;;;;1.90;0.80;;;19.20;45.60;;;;;;4972885;28;20073;-74
2022/05/26 05:37:37;;;;;;;1.90;0.82;;;19.10;45.90;;;;;;4974046;28;20102;-73
2022/05/26 05:40:04;;;;;;;5.47;1.02;;;19.20;46.10;;;;;;4991975;28;20059;-72
2022/05/26 05:42:30;;;;;;;2.70;1.02;;;19.30;46.00;;;;;;4991899;28;20404;-72
2022/05/26 05:44:57;;;;;;;3.58;0.73;;;19.20;45.70;;;;;;4992228;28;20026;-71
2022/05/26 05:47:23;;;;;;;7.28;0.77;;;19.40;45.60;;;;;;4992597;28;20171;-72
2022/05/26 05:49:49;;;;;;;1.65;0.60;;;19.60;45.40;;;;;;4992024;28;20396;-71
2022/05/26 05:52:18;;;;;;;1.52;0.55;;;19.90;44.80;;;;;;4991827;28;20476;-72
2022/05/26 05:54:44;;;;;;;1.52;0.55;;;20.10;43.90;;;;;;4991934;28;20027;-71
2022/05/26 05:57:10;;;;;;;5.18;0.73;;;20.60;43.20;;;;;;4993690;28;20554;-72
2022/05/26 05:59:35;;;;;;;6.28;1.08;;;21.40;42.00;;;;;;4994650;28;20456;-72
2022/05/26 06:02:01;;;;;;;3.88;0.80;;;21.60;41.50;;;;;;4994479;28;20499;-72
2022/05/26 06:04:27;;;;;;;1.92;0.85;;;21.70;41.40;;;;;;4995740;28;20024;-71
2022/05/26 06:06:53;;;;;;;1.48;0.55;;;21.20;42.10;;;;;;4994913;28;20460;-72
2022/05/26 06:09:20;;;;;;;3.20;0.73;;;20.70;42.80;;;;;;4994766;28;20388;-72
2022/05/26 06:11:47;;;;;;;7.70;3.10;;;20.40;43.50;;;;;;4994954;28;20042;-72
2022/05/26 06:14:14;;;;;;;11.00;4.90;;;20.00;44.60;;;;;;4993114;28;20023;-71
2022/05/26 06:16:40;;;;;;;17.67;10.07;;;19.80;45.20;;;;;;4994956;28;20038;-72
2022/05/26 06:19:06;;;;;;;5.07;1.67;;;19.70;45.90;;;;;;4977660;28;20026;-72
2022/05/26 06:21:32;;;;;;;9.15;3.40;;;19.70;46.00;;;;;;4995287;28;20057;-75
2022/05/26 06:23:58;;;;;;;5.65;2.45;;;19.60;46.30;;;;;;4977797;28;20030;-76
2022/05/26 06:26:25;;;;;;;11.88;5.40;;;19.50;46.70;;;;;;4995661;28;20053;-74
2022/05/26 06:31:35;;;;;;;3.50;1.08;;;19.40;46.90;;;;;;4995671;28;20084;-75
2022/05/26 06:39:28;;;;;;;5.35;1.20;;;19.40;47.40;;;;;;4995972;28;20235;-75
2022/05/26 06:42:06;;;;;;;1.35;0.63;;;19.60;46.40;;;;;;4977322;28;20030;-75
2022/05/26 06:44:33;;;;;;;9.63;3.00;;;19.70;46.60;;;;;;4994751;28;20029;-74
2022/05/26 06:46:58;;;;;;;2.63;1.08;;;20.00;45.60;;;;;;4994645;28;20370;-75
2022/05/26 06:49:24;;;;;;;19.13;9.45;;;20.00;45.50;;;;;;4994806;28;20025;-75
2022/05/26 06:51:50;;;;;;;4.20;2.20;;;20.20;45.20;;;;;;4994762;28;20547;-77
2022/05/26 06:54:15;;;;;;;5.90;1.55;;;20.30;45.10;;;;;;4994503;28;20581;-74
2022/05/26 06:56:41;;;;;;;1.17;0.52;;;20.40;44.50;;;;;;4977234;28;20045;-75
2022/05/26 06:59:06;;;;;;;4.47;0.63;;;20.50;45.00;;;;;;4994426;28;20053;-74
2022/05/26 07:01:32;;;;;;;1.10;0.30;;;20.80;44.00;;;;;;4994782;28;20501;-75
2022/05/26 07:03:58;;;;;;;3.33;0.77;;;21.10;43.80;;;;;;4994735;28;20113;-74
2022/05/26 07:06:27;;;;;;;2.13;0.65;;;21.50;43.70;;;;;;4994462;28;20433;-73
2022/05/26 07:08:53;;;;;;;5.13;2.15;;;21.80;42.50;;;;;;4976582;28;20026;-74
2022/05/26 07:11:19;;;;;;;2.95;1.10;;;22.10;42.10;;;;;;4976698;28;20041;-75
2022/05/26 07:13:45;;;;;;;1.05;0.50;;;22.30;41.20;;;;;;4976796;28;20097;-73
2022/05/26 07:16:11;;;;;;;1.35;0.82;;;22.40;41.00;;;;;;4994300;28;20018;-75
2022/05/26 07:18:38;;;;;;;1.90;0.60;;;22.10;40.90;;;;;;4994191;28;20037;-75
2022/05/26 07:21:06;;;;;;;1.48;0.60;;;22.20;41.40;;;;;;4994250;28;20109;-75
2022/05/26 07:23:32;;;;;;;1.92;0.60;;;22.50;40.80;;;;;;4994169;28;20019;-74
2022/05/26 07:25:57;;;;;;;2.25;0.70;;;23.00;40.30;;;;;;4994077;28;20086;-73
2022/05/26 07:28:23;;;;;;;1.10;0.57;;;22.90;40.10;;;;;;4976045;28;20026;-72
2022/05/26 07:30:49;;;;;;;13.70;8.35;;;23.10;43.70;;;;;;4993963;28;20042;-72
2022/05/26 07:33:15;;;;;;;132.13;69.97;;;23.40;39.90;;;;;;4993854;28;20038;-71
2022/05/26 07:35:41;;;;;;;126.05;80.45;;;23.00;40.30;;;;;;4993765;28;20488;-73
2022/05/26 07:43:37;;;;;;;57.83;36.33;;;22.80;40.60;;;;;;4993763;28;20069;-71
2022/05/26 07:46:04;;;;;;;31.08;17.65;;;23.00;40.30;;;;;;4993616;28;20053;-70
2022/05/26 07:48:30;;;;;;;250.48;174.48;;;23.00;40.60;;;;;;4993844;28;20519;-72
2022/05/26 07:50:56;;;;;;;16.42;8.77;;;23.20;40.50;;;;;;4994018;28;20034;-73
2022/05/26 07:53:21;;;;;;;21.55;11.20;;;23.30;39.60;;;;;;4993850;28;20024;-70
2022/05/26 07:55:47;;;;;;;35.05;19.20;;;23.60;40.40;;;;;;4993460;28;20027;-71
2022/05/26 07:58:13;;;;;;;37.30;21.05;;;24.00;38.60;;;;;;4993381;28;20430;-74
2022/05/26 08:00:39;;;;;;;89.03;49.92;;;23.90;39.30;;;;;;4993156;28;20026;-71
2022/05/26 08:03:05;;;;;;;19.90;10.65;;;23.90;39.20;;;;;;4993056;28;20022;-69
2022/05/26 08:05:32;;;;;;;15.80;9.88;;;24.00;38.60;;;;;;4993362;28;20396;-69
2022/05/26 08:07:58;;;;;;;4.57;2.58;;;24.20;38.80;;;;;;4992938;28;20053;-69
2022/05/26 08:10:24;;;;;;;29.08;15.85;;;24.10;38.20;;;;;;4992697;28;20030;-69
2022/05/26 08:12:50;;;;;;;29.67;16.63;;;24.50;38.30;;;;;;4994022;28;20030;-69
2022/05/26 08:15:16;;;;;;;28.48;15.82;;;25.00;38.30;;;;;;4993115;28;20473;-70
2022/05/26 08:17:41;;;;;;;87.38;45.53;;;25.30;36.80;;;;;;4992867;28;20492;-70
2022/05/26 08:20:08;;;;;;;13.90;6.80;;;25.30;36.40;;;;;;4993006;28;20058;-69
2022/05/26 08:22:33;;;;;;;29.35;15.73;;;25.50;36.40;;;;;;4992936;28;20062;-70
2022/05/26 08:24:59;;;;;;;27.42;13.38;;;26.20;36.10;;;;;;4993073;28;20080;-68
2022/05/26 08:27:26;;;;;;;21.52;10.40;;;26.50;34.30;;;;;;4993818;28;20030;-70
2022/05/26 08:29:54;;;;;;;6.82;4.00;;;27.30;34.10;;;;;;4992562;28;20054;-69
2022/05/26 08:32:21;;;;;;;7.40;4.38;;;27.90;32.30;;;;;;4992427;28;20023;-69
2022/05/26 08:34:48;;;;;;;13.00;6.25;;;28.00;32.30;;;;;;4992917;28;20046;-71
2022/05/26 08:37:15;;;;;;;2.83;1.60;;;;;;;;;;4992487;28;20050;-71
2022/05/26 08:39:41;;;;;;;6.60;3.92;;;28.50;32.10;;;;;;4992660;28;20365;-70
2022/05/26 08:42:17;;;;;;;6.20;1.55;;;28.70;32.00;;;;;;4992571;28;20018;-70
2022/05/26 08:44:43;;;;;;;12.45;4.75;;;29.10;30.60;;;;;;4992474;28;20031;-69
2022/05/26 08:47:12;;;;;;;5.15;1.60;;;28.80;31.40;;;;;;4992246;28;20038;-69
2022/05/26 08:49:59;;;;;;;6.63;3.38;;;28.90;31.10;;;;;;4992554;28;20457;-70
2022/05/26 08:52:40;;;;;;;14.88;1.83;;;28.80;31.50;;;;;;4992475;28;20019;-70
2022/05/26 08:55:15;;;;;;;4.22;1.55;;;28.60;32.30;;;;;;4992215;28;20026;-69
2022/05/26 08:58:01;;;;;;;2.58;1.40;;;28.50;31.80;;;;;;4992197;28;20130;-70
2022/05/26 09:00:27;;;;;;;7.05;1.67;;;28.30;32.20;;;;;;4992647;28;20056;-71
2022/05/26 09:02:55;;;;;;;4.05;1.17;;;28.40;32.10;;;;;;4992435;28;20022;-69
2022/05/26 09:05:22;;;;;;;2.60;0.80;;;27.90;32.30;;;;;;4992496;28;20050;-70
2022/05/26 09:13:42;;;;;;;12.43;5.50;;;27.90;32.80;;;;;;4992013;28;20114;-70
2022/05/26 09:16:09;;;;;;;15.18;6.07;;;27.30;34.60;;;;;;4991854;28;20034;-69
2022/05/26 09:18:35;;;;;;;16.40;7.22;;;;;;;;;;4991727;28;20042;-69
2022/05/26 09:21:21;;;;;;;20.48;10.18;;;;;;;;;;4991081;28;20041;-70
2022/05/26 09:23:47;;;;;;;2.47;1.02;;;;;;;;;;4992053;28;20512;-71
2022/05/26 09:26:16;;;;;;;1.20;0.70;;;;;;;;;;4991885;28;20018;-72
2022/05/26 09:28:46;;;;;;;4.47;1.02;;;;;;;;;;4991848;28;20026;-70
2022/05/26 09:31:23;;;;;;;3.78;0.75;;;;;;;;;;4992131;28;20117;-70
2022/05/26 09:34:04;;;;;;;1.25;0.68;;;;;;;;;;4974584;28;20030;-70
2022/05/26 09:36:36;;;;;;;1.80;0.68;;;29.50;32.20;;;;;;4974737;28;20062;-71
2022/05/26 09:39:03;;;;;;;1.15;0.60;;;29.30;31.70;;;;;;4991904;28;20077;-72
2022/05/26 09:41:35;;;;;;;2.55;0.90;;;28.80;31.50;;;;;;4992210;28;20033;-72
2022/05/26 09:44:02;;;;;;;3.30;1.00;;;28.20;32.90;;;;;;4989148;28;20054;-71
2022/05/26 09:46:28;;;;;;;1.45;0.60;;;27.60;33.00;;;;;;4979001;28;20018;-71
2022/05/26 09:49:07;;;;;;;3.05;0.63;;;26.90;34.00;;;;;;4991596;28;20030;-71
2022/05/26 09:51:45;;;;;;;1.27;0.73;;;26.80;34.80;;;;;;4995698;28;20053;-72
2022/05/26 09:54:27;;;;;;;1.98;0.70;;;27.30;34.30;;;;;;4995533;28;20050;-71
2022/05/26 09:56:53;;;;;;;2.17;0.70;;;27.80;34.40;;;;;;4995725;28;20048;-70
2022/05/26 09:59:38;;;;;;;2.53;0.57;;;28.10;33.70;;;;;;4995781;28;20022;-70
2022/05/26 10:02:22;;;;;;;3.15;0.98;;;27.70;33.00;;;;;;4993695;28;20404;-71
2022/05/26 10:04:55;;;;;;;1.92;0.90;;;27.40;32.80;;;;;;4994664;28;20026;-69
2022/05/26 10:07:32;;;;;;;3.05;0.63;;;26.80;34.90;;;;;;4995397;28;20035;-69
2022/05/26 10:10:25;;;;;;;3.67;0.60;;;26.90;35.30;;;;;;4995792;28;20373;-71
2022/05/26 10:13:23;;;;;;;7.57;0.63;;;26.80;34.40;;;;;;4995555;28;20030;-69
2022/05/26 10:16:11;;;;;;;2.78;0.43;;;26.90;34.70;;;;;;4995362;28;20105;-69
2022/05/26 10:18:58;;;;;;;2.38;0.40;;;26.50;35.40;;;;;;4994098;28;20097;-69
2022/05/26 10:21:44;;;;;;;1.88;0.95;;;;;;;;;;4993267;28;20404;-70
2022/05/26 10:24:19;;;;;;;3.53;0.60;;;26.00;36.00;;;;;;4975825;28;20482;-70
2022/05/26 10:26:46;;;;;;;2.78;0.63;;;25.70;36.60;;;;;;4993263;28;20113;-69
2022/05/26 10:29:41;;;;;;;2.05;0.50;;;25.80;37.10;;;;;;4975318;28;20058;-69
2022/05/26 10:32:32;;;;;;;0.73;0.35;;;25.80;35.20;;;;;;4993102;28;20033;-69
2022/05/26 10:35:24;;;;;;;3.08;0.52;;;25.50;36.60;;;;;;4994312;28;20022;-69
2022/05/26 10:38:10;;;;;;;1.38;0.43;;;25.50;36.50;;;;;;4988964;28;20045;-69
2022/05/26 10:40:49;;;;;;;2.10;0.50;;;25.20;36.10;;;;;;4994826;28;20116;-69
2022/05/26 10:43:24;;;;;;;1.00;0.50;;;25.20;36.00;;;;;;4994748;28;20033;-69
2022/05/26 10:45:53;;;;;;;1.17;0.52;;;24.90;36.30;;;;;;4994458;28;20505;-69
2022/05/26 10:48:21;;;;;;;3.13;1.05;;;24.70;37.90;;;;;;4994708;28;20546;-68
2022/05/26 10:51:01;;;;;;;3.88;0.73;;;24.80;35.80;;;;;;4994845;28;20113;-69
2022/05/26 10:53:38;;;;;;;1.73;0.65;;;24.70;36.90;;;;;;4989467;28;20043;-69
2022/05/26 10:56:42;;;;;;;0.63;0.50;;;25.00;36.60;;;;;;4975425;28;20517;-70
2022/05/26 10:59:18;;;;;;;1.95;0.73;;;25.50;36.30;;;;;;4994444;28;20397;-70
2022/05/26 11:01:55;;;;;;;1.10;0.30;;;26.00;35.80;;;;;;4994446;28;20022;-70
2022/05/26 11:04:41;;;;;;;1.48;0.68;;;26.20;35.00;;;;;;4994368;28;20068;-69
2022/05/26 11:07:31;;;;;;;1.95;0.70;;;25.90;35.00;;;;;;4994364;28;20088;-69
2022/05/26 11:10:05;;;;;;;2.08;0.30;;;25.90;35.20;;;;;;4976827;28;20030;-69
2022/05/26 11:12:41;;;;;;;1.10;0.35;;;25.90;36.20;;;;;;4994127;28;20042;-69
2022/05/26 11:18:37;;;;;;;1.38;0.30;;;25.70;36.50;;;;;;4993926;28;20034;-69
2022/05/26 11:21:03;;;;;;;2.28;0.40;;;25.80;36.60;;;;;;4994002;28;20029;-70
2022/05/26 11:23:35;;;;;;;1.60;0.60;;;25.90;36.40;;;;;;4976588;28;20031;-69
2022/05/26 11:26:06;;;;;;;2.80;0.68;;;25.80;36.70;;;;;;4976431;28;20030;-70
2022/05/26 11:28:39;;;;;;;0.95;0.40;;;25.80;36.30;;;;;;4993936;28;20039;-69
2022/05/26 11:37:01;;;;;;;7.32;3.35;;;25.50;36.30;;;;;;4993991;28;20053;-70
2022/05/26 11:39:32;;;;;;;25.73;11.93;;;25.40;37.30;;;;;;4992978;28;20122;-70
2022/05/26 11:42:03;;;;;;;19.03;8.03;;;24.80;38.10;;;;;;4993410;28;20027;-70
2022/05/26 11:44:39;;;;;;;3.33;1.65;;;24.40;38.60;;;;;;4993113;28;20266;-70
2022/05/26 11:47:32;;;;;;;5.05;1.23;;;24.30;38.90;;;;;;4992769;28;20113;-71
2022/05/26 11:49:57;;;;;;;4.93;0.65;;;24.30;39.60;;;;;;4993285;28;20026;-71
2022/05/26 11:52:31;;;;;;;1.75;0.40;;;24.70;38.80;;;;;;4992354;28;20026;-71
2022/05/26 11:55:01;;;;;;;1.58;0.50;;;25.20;38.90;;;;;;4976168;28;20091;-71
2022/05/26 11:57:42;;;;;;;4.25;0.77;;;25.50;38.70;;;;;;4979468;28;20038;-70
2022/05/26 12:00:35;;;;;;;1.98;0.60;;;25.70;37.90;;;;;;4993195;28;20026;-69
2022/05/26 12:03:22;;;;;;;1.83;0.65;;;25.50;37.50;;;;;;4993133;28;20117;-71
2022/05/26 12:05:56;;;;;;;2.15;0.32;;;24.90;38.20;;;;;;4993046;28;20117;-71
2022/05/26 12:08:29;;;;;;;1.70;0.60;;;24.40;39.70;;;;;;4993094;28;20105;-69
2022/05/26 12:10:58;;;;;;;1.05;0.80;;;24.30;39.60;;;;;;4993009;28;20026;-71
2022/05/26 12:13:25;;;;;;;2.38;0.88;;;24.20;39.10;;;;;;4992806;28;20030;-71
2022/05/26 12:16:15;;;;;;;3.45;0.82;;;24.40;39.70;;;;;;4993260;28;20018;-70
2022/05/26 12:19:04;;;;;;;2.58;1.17;;;24.70;39.20;;;;;;4992996;28;20014;-70
2022/05/26 12:21:29;;;;;;;2.78;1.38;;;24.90;38.70;;;;;;4993001;28;20396;-71
2022/05/26 12:24:18;;;;;;;2.15;0.73;;;25.00;39.20;;;;;;4992970;28;20101;-71
2022/05/26 12:26:49;;;;;;;1.50;0.57;;;25.10;38.50;;;;;;4975326;28;20030;-70
2022/05/26 12:29:48;;;;;;;0.97;0.70;;;25.20;38.10;;;;;;4992598;28;20106;-70
2022/05/26 12:32:19;;;;;;;0.63;0.50;;;25.30;38.10;;;;;;4992777;28;20654;-71
2022/05/26 12:35:06;;;;;;;2.58;1.15;;;25.10;37.80;;;;;;4992817;28;20030;-70
2022/05/26 12:37:52;;;;;;;2.40;0.60;;;25.00;39.40;;;;;;4992769;28;20476;-71
2022/05/26 12:40:40;;;;;;;3.58;0.50;;;24.90;38.30;;;;;;4992890;28;20459;-71
2022/05/26 12:43:23;;;;;;;1.33;0.65;;;24.60;38.00;;;;;;4992959;28;20396;-70
2022/05/26 12:45:52;;;;;;;1.40;0.60;;;24.50;39.20;;;;;;4993017;28;20113;-70
2022/05/26 12:48:48;;;;;;;3.92;0.80;;;24.70;38.10;;;;;;4975051;28;20035;-71
2022/05/26 12:51:14;;;;;;;0.88;0.60;;;24.90;38.20;;;;;;4993004;28;20022;-72
2022/05/26 12:53:54;;;;;;;5.40;0.70;;;25.10;38.60;;;;;;4968230;28;20017;-70
2022/05/26 12:56:31;;;;;;;1.00;0.63;;;25.00;37.90;;;;;;4973637;28;20493;-71
2022/05/26 12:58:58;;;;;;;1.50;0.65;;;25.00;37.40;;;;;;4990368;28;20432;-69
2022/05/26 13:01:27;;;;;;;1.98;0.50;;;24.70;37.80;;;;;;4992379;28;20484;-69
2022/05/26 13:04:03;;;;;;;5.38;0.90;;;24.50;38.20;;;;;;4992350;28;20024;-70
2022/05/26 13:06:33;;;;;;;7.45;3.25;;;24.50;39.10;;;;;;4992370;28;20025;-69
2022/05/26 13:09:10;;;;;;;9.02;4.85;;;24.40;39.10;;;;;;4991895;28;20023;-70
2022/05/26 13:11:55;;;;;;;2.42;1.17;;;24.50;38.90;;;;;;4992055;28;20038;-69
2022/05/26 13:14:46;;;;;;;3.00;1.35;;;24.50;37.70;;;;;;4992230;28;20026;-69
2022/05/26 13:17:14;;;;;;;1.63;0.60;;;24.50;38.40;;;;;;4992187;28;20426;-69
2022/05/26 13:19:52;;;;;;;3.63;0.75;;;24.60;37.20;;;;;;4992225;28;20045;-70
2022/05/26 13:22:25;;;;;;;1.15;0.50;;;24.60;38.70;;;;;;4992402;28;20065;-70
2022/05/26 13:24:56;;;;;;;1.92;0.73;;;24.50;38.80;;;;;;4992300;28;20014;-69
2022/05/26 13:27:24;;;;;;;;;;;24.40;38.20;;;;;;4978889;28;20053;-69
2022/05/26 13:29:52;;;;;;;2.45;0.50;;;24.30;38.80;;;;;;4995810;28;20296;-68
2022/05/26 13:35:18;;;;;;;2.03;0.60;;;23.90;39.10;;;;;;4996169;28;20024;-69
2022/05/26 13:37:44;;;;;;;0.73;0.50;;;23.60;40.50;;;;;;4995819;28;20053;-69
2022/05/26 13:40:12;;;;;;;3.47;0.85;;;23.30;40.50;;;;;;4995949;28;20492;-69
2022/05/26 13:42:42;;;;;;;5.72;1.30;;;23.00;40.90;;;;;;4993240;28;20374;-70
2022/05/26 13:45:21;;;;;;;2.45;1.58;;;22.90;41.60;;;;;;4995084;28;20085;-69
2022/05/26 13:47:47;;;;;;;6.05;1.23;;;22.90;41.50;;;;;;4994729;28;20171;-69
2022/05/26 13:50:13;;;;;;;5.47;1.60;;;22.70;42.40;;;;;;4995751;28;20037;-70
2022/05/26 13:52:40;;;;;;;2.22;1.27;;;22.50;42.30;;;;;;4994513;28;20053;-70
2022/05/26 13:55:21;;;;;;;3.50;1.42;;;22.40;42.90;;;;;;4995227;28;20045;-68
2022/05/26 13:57:50;;;;;;;5.80;1.55;;;22.60;43.70;;;;;;4995174;28;20446;-69
2022/05/26 14:00:35;;;;;;;3.15;1.70;;;22.90;42.60;;;;;;4995616;28;20026;-70